Time;durP1;ratioP1;P1;durP2;ratioP2;P2;SDS_P1;SDS_P2;PMS_P1;PMS_P2;Temp;Humidity;BMP_temperature;BMP_pressure;BME280_temperature;BME280_humidity;BME280_pressure;Samples;Min_cycle;Max_cycle;Signal;HPM_P1;HPM_P2
2022/04/04 00:01:00;;;;;;;;;;;;;;;;;;2107173;28;19924;-43
2022/04/04 00:02:03;;;;;;;;;;;;;;;;;;2106825;28;19971;-42
2022/04/04 00:03:04;;;;;;;;;;;;;;;;;;2106831;28;19942;-42
2022/04/04 00:04:05;;;;;;;;;;;;;;;;;;2106981;28;19930;-50
2022/04/04 00:05:06;;;;;;;;;;;;;;;;;;2106737;28;19930;-49
2022/04/04 00:06:07;;;;;;;;;;;;;;;;;;2106660;28;19924;-51
2022/04/04 00:07:08;;;;;;;;;;;;;;;;;;2106964;28;20399;-42
2022/04/04 00:08:10;;;;;;;;;;;;;;;;;;2106636;28;19981;-43
2022/04/04 00:09:11;;;;;;;;;;;;;;;;;;2106703;28;20437;-43
2022/04/04 00:10:12;;;;;;;;;;;;;;;;;;2106489;28;19924;-42
2022/04/04 00:11:13;;;;;;;;;;;;;;;;;;2106295;28;20478;-42
2022/04/04 00:12:15;;;;;;;;;;;;;;;;;;2106758;28;19936;-42
2022/04/04 00:13:16;;;;;;;;;;;;;;;;;;2106705;28;20015;-43
2022/04/04 00:14:17;;;;;;;;;;;;;;;;;;2106121;28;20015;-42
2022/04/04 00:15:18;;;;;;;;;;;;;;;;;;2106743;28;19931;-42
2022/04/04 00:16:20;;;;;;;;;;;;;;;;;;2106440;28;19931;-42
2022/04/04 00:17:20;;;;;;;;;;;;;;;;;;2106645;28;19931;-42
2022/04/04 00:18:22;;;;;;;;;;;;;;;;;;2106595;28;19931;-42
2022/04/04 00:19:22;;;;;;;;;;;;;;;;;;2106528;28;19928;-42
2022/04/04 00:20:24;;;;;;;;;;;;;;;;;;2106608;28;20381;-43
2022/04/04 00:21:24;;;;;;;;;;;;;;;;;;2106699;28;20285;-49
2022/04/04 00:22:26;;;;;;;;;;;;;;;;;;2106562;28;19924;-49
2022/04/04 00:23:27;;;;;;;;;;;;;;;;;;2106798;28;19928;-43
2022/04/04 00:24:28;;;;;;;;;;;;;;;;;;2106657;28;19977;-42
2022/04/04 00:25:29;;;;;;;;;;;;;;;;;;2106722;28;19993;-51
2022/04/04 00:26:30;;;;;;;;;;;;;;;;;;2106510;28;19924;-49
2022/04/04 00:27:31;;;;;;;;;;;;;;;;;;2106521;28;19928;-48
2022/04/04 00:28:32;;;;;;;;;;;;;;;;;;2106833;28;19965;-49
2022/04/04 00:29:33;;;;;;;;;;;;;;;;;;2106471;28;19931;-50
2022/04/04 00:30:35;;;;;;;;;;;;;;;;;;2106653;28;20305;-49
2022/04/04 00:31:36;;;;;;;;;;;;;;;;;;2106643;28;19924;-49
2022/04/04 00:32:38;;;;;;;;;;;;;;;;;;2106446;28;20335;-49
2022/04/04 00:33:38;;;;;;;;;;;;;;;;;;2106760;28;19925;-49
2022/04/04 00:34:40;;;;;;;;;;;;;;;;;;2106461;28;19924;-54
2022/04/04 00:35:41;;;;;;;;;;;;;;;;;;2106781;28;19931;-49
2022/04/04 00:36:43;;;;;;;;;;;;;;;;;;2106431;28;19924;-50
2022/04/04 00:37:43;;;;;;;;;;;;;;;;;;2106461;28;19931;-49
2022/04/04 00:38:45;;;;;;;;;;;;;;;;;;2106589;28;19924;-49
2022/04/04 00:39:46;;;;;;;;;;;;;;;;;;2106573;28;19924;-49
2022/04/04 00:40:47;;;;;;;;;;;;;;;;;;2106093;28;19942;-49
2022/04/04 00:41:48;;;;;;;;;;;;;;;;;;2105994;28;19924;-48
2022/04/04 00:42:49;;;;;;;;;;;;;;;;;;2106428;28;19924;-48
2022/04/04 00:43:51;;;;;;;;;;;;;;;;;;2106325;28;19942;-52
2022/04/04 00:44:51;;;;;;;;;;;;;;;;;;2106942;28;19924;-42
2022/04/04 00:45:53;;;;;;;;;;;;;;;;;;2106425;28;19924;-42
2022/04/04 00:46:54;;;;;;;;;;;;;;;;;;2106298;28;19931;-43
2022/04/04 00:47:55;;;;;;;;;;;;;;;;;;2106452;28;19924;-42
2022/04/04 00:48:56;;;;;;;;;;;;;;;;;;2106358;28;19924;-42
2022/04/04 00:49:57;;;;;;;;;;;;;;;;;;2106509;28;20028;-42
2022/04/04 00:50:58;;;;;;;;;;;;;;;;;;2106578;28;20015;-42
2022/04/04 00:51:59;;;;;;;;;;;;;;;;;;2106344;28;19997;-42
2022/04/04 00:53:01;;;;;;;;;;;;;;;;;;2106498;28;19924;-43
2022/04/04 00:54:02;;;;;;;;;;;;;;;;;;2106412;28;19924;-42
2022/04/04 00:55:03;;;;;;;;;;;;;;;;;;2106350;28;19997;-42
2022/04/04 00:56:04;;;;;;;;;;;;;;;;;;2106494;28;20376;-42
2022/04/04 00:57:05;;;;;;;;;;;;;;;;;;2106239;28;20369;-42
2022/04/04 00:58:06;;;;;;;;;;;;;;;;;;2106363;28;19931;-42
2022/04/04 00:59:10;;;;;;;;;;;;;;;;;;2106286;28;20331;-42
2022/04/04 01:00:11;;;;;;;;;;;;;;;;;;2106473;28;19928;-42
2022/04/04 01:01:12;;;;;;;;;;;;;;;;;;2106396;28;19979;-47
2022/04/04 01:02:14;;;;;;;;;;;;;;;;;;2105965;28;20070;-50
2022/04/04 01:03:15;;;;;;;;;;;;;;;;;;2105855;28;19982;-52
2022/04/04 01:04:16;;;;;;;;;;;;;;;;;;2106337;28;20401;-48
2022/04/04 01:05:17;;;;;;;;;;;;;;;;;;2106876;28;19928;-49
2022/04/04 01:06:18;;;;;;;;;;;;;;;;;;2106273;28;19963;-47
2022/04/04 01:07:19;;;;;;;;;;;;;;;;;;2106367;28;19999;-49
2022/04/04 01:08:21;;;;;;;;;;;;;;;;;;2106321;28;19924;-49
2022/04/04 01:09:22;;;;;;;;;;;;;;;;;;2106233;28;19951;-48
2022/04/04 01:10:23;;;;;;;;;;;;;;;;;;2105971;28;19957;-48
2022/04/04 01:11:29;;;;;;;;;;;;;;;;;;2106157;28;19943;-49
2022/04/04 01:12:30;;;;;;;;;;;;;;;;;;2106370;28;20067;-49
2022/04/04 01:13:32;;;;;;;;;;;;;;;;;;2106287;28;19931;-51
2022/04/04 01:14:33;;;;;;;;;;;;;;;;;;2100866;28;19929;-48
2022/04/04 01:15:35;;;;;;;;;;;;;;;;;;2097772;28;19925;-48
2022/04/04 01:16:36;;;;;;;;;;;;;;;;;;2097855;28;19924;-49
2022/04/04 01:17:38;;;;;;;;;;;;;;;;;;2098350;28;19946;-43
2022/04/04 01:18:39;;;;;;;;;;;;;;;;;;2098103;28;19951;-42
2022/04/04 01:19:40;;;;;;;;;;;;;;;;;;2098131;28;19974;-42
2022/04/04 01:20:41;;;;;;;;;;;;;;;;;;2097788;28;20437;-43
2022/04/04 01:21:42;;;;;;;;;;;;;;;;;;2097955;28;20393;-48
2022/04/04 01:22:43;;;;;;;;;;;;;;;;;;2097874;28;20278;-48
2022/04/04 01:23:44;;;;;;;;;;;;;;;;;;2097881;28;19924;-48
2022/04/04 01:24:45;;;;;;;;;;;;;;;;;;2104539;28;19985;-49
2022/04/04 01:25:46;;;;;;;;;;;;;;;;;;2106230;28;19950;-48
2022/04/04 01:26:47;;;;;;;;;;;;;;;;;;2106050;28;19985;-48
2022/04/04 01:27:49;;;;;;;;;;;;;;;;;;2106345;28;20434;-48
2022/04/04 01:28:49;;;;;;;;;;;;;;;;;;2106059;28;19932;-42
2022/04/04 01:29:51;;;;;;;;;;;;;;;;;;2106059;28;19924;-42
2022/04/04 01:30:52;;;;;;;;;;;;;;;;;;2106159;28;19928;-42
2022/04/04 01:31:54;;;;;;;;;;;;;;;;;;2106037;28;20404;-42
2022/04/04 01:32:55;;;;;;;;;;;;;;;;;;2106156;28;19925;-42
2022/04/04 01:33:56;;;;;;;;;;;;;;;;;;2105872;28;20297;-42
2022/04/04 01:34:57;;;;;;;;;;;;;;;;;;2106085;28;19924;-42
2022/04/04 01:35:59;;;;;;;;;;;;;;;;;;2106145;28;20259;-42
2022/04/04 01:36:59;;;;;;;;;;;;;;;;;;2106105;28;19924;-42
2022/04/04 01:38:01;;;;;;;;;;;;;;;;;;2106162;28;19949;-43
2022/04/04 01:39:02;;;;;;;;;;;;;;;;;;2106399;28;19931;-42
2022/04/04 01:40:03;;;;;;;;;;;;;;;;;;2106438;28;20294;-48
2022/04/04 01:41:04;;;;;;;;;;;;;;;;;;2106228;28;20368;-48
2022/04/04 01:42:05;;;;;;;;;;;;;;;;;;2105915;28;19951;-48
2022/04/04 01:43:06;;;;;;;;;;;;;;;;;;2106484;28;19993;-50
2022/04/04 01:44:07;;;;;;;;;;;;;;;;;;2106195;28;20380;-49
2022/04/04 01:45:08;;;;;;;;;;;;;;;;;;2106020;28;20365;-50
2022/04/04 01:46:24;;;;;;;;;;;;;;;;;;2105969;28;19931;-47
2022/04/04 01:47:25;;;;;;;;;;;;;;;;;;2106252;28;19928;-48
2022/04/04 01:48:26;;;;;;;;;;;;;;;;;;2106016;28;20413;-48
2022/04/04 01:49:27;;;;;;;;;;;;;;;;;;2106110;28;19924;-47
2022/04/04 01:50:29;;;;;;;;;;;;;;;;;;2106490;28;20319;-43
2022/04/04 01:51:29;;;;;;;;;;;;;;;;;;2105901;28;19994;-43
2022/04/04 01:52:31;;;;;;;;;;;;;;;;;;2106170;28;19978;-43
2022/04/04 01:53:32;;;;;;;;;;;;;;;;;;2106049;28;19924;-42
2022/04/04 01:54:34;;;;;;;;;;;;;;;;;;2106043;28;19987;-43
2022/04/04 01:55:34;;;;;;;;;;;;;;;;;;2105989;28;19924;-42
2022/04/04 01:56:36;;;;;;;;;;;;;;;;;;2106305;28;19924;-43
2022/04/04 01:57:37;;;;;;;;;;;;;;;;;;2106308;28;19925;-47
2022/04/04 01:58:38;;;;;;;;;;;;;;;;;;2106150;28;20420;-48
2022/04/04 01:59:39;;;;;;;;;;;;;;;;;;2106205;28;19925;-48
2022/04/04 02:00:40;;;;;;;;;;;;;;;;;;2106199;28;19924;-48
2022/04/04 02:01:42;;;;;;;;;;;;;;;;;;2106024;28;19924;-47
2022/04/04 02:02:43;;;;;;;;;;;;;;;;;;2105940;28;19959;-48
2022/04/04 02:03:44;;;;;;;;;;;;;;;;;;2106228;28;19924;-43
2022/04/04 02:04:45;;;;;;;;;;;;;;;;;;2105966;28;20369;-43
2022/04/04 02:05:46;;;;;;;;;;;;;;;;;;2106001;28;19928;-43
2022/04/04 02:06:47;;;;;;;;;;;;;;;;;;2105655;28;19932;-43
2022/04/04 02:07:48;;;;;;;;;;;;;;;;;;2106137;28;19931;-43
2022/04/04 02:08:50;;;;;;;;;;;;;;;;;;2105960;28;20359;-43
2022/04/04 02:09:53;;;;;;;;;;;;;;;;;;2106021;28;19924;-43
2022/04/04 02:10:54;;;;;;;;;;;;;;;;;;2106119;28;19924;-43
2022/04/04 02:11:55;;;;;;;;;;;;;;;;;;2105760;28;19931;-43
2022/04/04 02:12:56;;;;;;;;;;;;;;;;;;2106145;28;19924;-43
2022/04/04 02:13:59;;;;;;;;;;;;;;;;;;2104762;28;19924;-43
2022/04/04 02:15:00;;;;;;;;;;;;;;;;;;2099031;28;20276;-43
2022/04/04 02:16:01;;;;;;;;;;;;;;;;;;2099056;28;19924;-43
2022/04/04 02:17:02;;;;;;;;;;;;;;;;;;2099045;28;20282;-43
2022/04/04 02:18:03;;;;;;;;;;;;;;;;;;2099016;28;19932;-43
2022/04/04 02:19:04;;;;;;;;;;;;;;;;;;2099025;28;19932;-43
2022/04/04 02:20:05;;;;;;;;;;;;;;;;;;2098980;28;20282;-43
2022/04/04 02:21:06;;;;;;;;;;;;;;;;;;2098988;28;19931;-43
2022/04/04 02:22:07;;;;;;;;;;;;;;;;;;2099175;28;19924;-49
2022/04/04 02:23:08;;;;;;;;;;;;;;;;;;2099018;28;19932;-48
2022/04/04 02:24:10;;;;;;;;;;;;;;;;;;2099217;28;19932;-48
2022/04/04 02:25:12;;;;;;;;;;;;;;;;;;2099013;28;20043;-48
2022/04/04 02:26:13;;;;;;;;;;;;;;;;;;2098882;28;20507;-47
2022/04/04 02:27:14;;;;;;;;;;;;;;;;;;2098921;28;19974;-47
2022/04/04 02:28:16;;;;;;;;;;;;;;;;;;2099025;28;20281;-48
2022/04/04 02:29:18;;;;;;;;;;;;;;;;;;2103078;28;19924;-49
2022/04/04 02:30:19;;;;;;;;;;;;;;;;;;2107353;28;19924;-49
2022/04/04 02:31:20;;;;;;;;;;;;;;;;;;2107579;28;20013;-43
2022/04/04 02:32:21;;;;;;;;;;;;;;;;;;2107299;28;19924;-43
2022/04/04 02:33:22;;;;;;;;;;;;;;;;;;2107323;28;19931;-43
2022/04/04 02:34:23;;;;;;;;;;;;;;;;;;2107454;28;19939;-48
2022/04/04 02:35:26;;;;;;;;;;;;;;;;;;2107415;28;19930;-48
2022/04/04 02:36:27;;;;;;;;;;;;;;;;;;2107182;28;19928;-49
2022/04/04 02:37:28;;;;;;;;;;;;;;;;;;2107370;28;19970;-47
2022/04/04 02:38:29;;;;;;;;;;;;;;;;;;2107313;28;19924;-48
2022/04/04 02:39:30;;;;;;;;;;;;;;;;;;2107359;28;19928;-48
2022/04/04 02:40:31;;;;;;;;;;;;;;;;;;2107232;28;19930;-48
2022/04/04 02:41:32;;;;;;;;;;;;;;;;;;2107323;28;19979;-48
2022/04/04 02:42:33;;;;;;;;;;;;;;;;;;2107188;28;19997;-48
2022/04/04 02:43:34;;;;;;;;;;;;;;;;;;2107270;28;19945;-49
2022/04/04 02:44:36;;;;;;;;;;;;;;;;;;2107308;28;20014;-47
2022/04/04 02:45:36;;;;;;;;;;;;;;;;;;2107170;28;19951;-49
2022/04/04 02:46:38;;;;;;;;;;;;;;;;;;2107290;28;19924;-48
2022/04/04 02:47:39;;;;;;;;;;;;;;;;;;2107202;28;19950;-49
2022/04/04 02:48:40;;;;;;;;;;;;;;;;;;2107056;28;20293;-48
2022/04/04 02:49:41;;;;;;;;;;;;;;;;;;2107204;28;19924;-49
2022/04/04 02:50:42;;;;;;;;;;;;;;;;;;2107569;28;19947;-48
2022/04/04 02:51:43;;;;;;;;;;;;;;;;;;2107292;28;19936;-49
2022/04/04 02:52:44;;;;;;;;;;;;;;;;;;2107351;28;19924;-48
2022/04/04 02:53:45;;;;;;;;;;;;;;;;;;2107151;28;20361;-48
2022/04/04 02:54:46;;;;;;;;;;;;;;;;;;2107331;28;20027;-50
2022/04/04 02:57:07;;;;;;;;;;;;;;;;;;2107259;28;19931;-47
2022/04/04 02:58:07;;;;;;;;;;;;;;;;;;2107113;28;19932;-48
2022/04/04 02:59:08;;;;;;;;;;;;;;;;;;2107149;28;19924;-49
2022/04/04 03:00:10;;;;;;;;;;;;;;;;;;2107600;28;19924;-48
2022/04/04 03:01:12;;;;;;;;;;;;;;;;;;2107021;28;19942;-48
2022/04/04 03:02:13;;;;;;;;;;;;;;;;;;2107379;28;19978;-49
2022/04/04 03:03:14;;;;;;;;;;;;;;;;;;2106730;28;19931;-49
2022/04/04 03:04:15;;;;;;;;;;;;;;;;;;2107235;28;19982;-50
2022/04/04 03:05:16;;;;;;;;;;;;;;;;;;2106829;28;19924;-48
2022/04/04 03:06:20;;;;;;;;;;;;;;;;;;2107045;28;19932;-42
2022/04/04 03:07:21;;;;;;;;;;;;;;;;;;2107058;28;20381;-43
2022/04/04 03:08:22;;;;;;;;;;;;;;;;;;2107281;28;19924;-43
2022/04/04 03:09:23;;;;;;;;;;;;;;;;;;2107389;28;19927;-48
2022/04/04 03:10:24;;;;;;;;;;;;;;;;;;2106908;28;20022;-49
2022/04/04 03:11:28;;;;;;;;;;;;;;;;;;2107643;28;19928;-43
2022/04/04 03:12:29;;;;;;;;;;;;;;;;;;2107267;28;20357;-48
2022/04/04 03:13:31;;;;;;;;;;;;;;;;;;2107142;28;19924;-48
2022/04/04 03:14:32;;;;;;;;;;;;;;;;;;2101653;28;20283;-48
2022/04/04 03:15:34;;;;;;;;;;;;;;;;;;2099037;28;19928;-43
2022/04/04 03:16:35;;;;;;;;;;;;;;;;;;2098796;28;20305;-46
2022/04/04 03:17:39;;;;;;;;;;;;;;;;;;2098753;28;19925;-48
2022/04/04 03:18:40;;;;;;;;;;;;;;;;;;2098782;28;20327;-48
2022/04/04 03:19:41;;;;;;;;;;;;;;;;;;2098713;28;19944;-48
2022/04/04 03:20:42;;;;;;;;;;;;;;;;;;2098626;28;20019;-48
2022/04/04 03:21:44;;;;;;;;;;;;;;;;;;2098552;28;19954;-49
2022/04/04 03:22:45;;;;;;;;;;;;;;;;;;2098533;28;20452;-48
2022/04/04 03:23:47;;;;;;;;;;;;;;;;;;2098585;28;19928;-49
2022/04/04 03:24:48;;;;;;;;;;;;;;;;;;2098666;28;19924;-48
2022/04/04 03:25:50;;;;;;;;;;;;;;;;;;2097448;28;20384;-49
2022/04/04 03:26:51;;;;;;;;;;;;;;;;;;2098734;28;19924;-48
2022/04/04 03:27:53;;;;;;;;;;;;;;;;;;2098712;28;19963;-43
2022/04/04 03:28:55;;;;;;;;;;;;;;;;;;2098541;28;20369;-43
2022/04/04 03:29:56;;;;;;;;;;;;;;;;;;2098959;28;19936;-43
2022/04/04 03:30:57;;;;;;;;;;;;;;;;;;2098895;28;19924;-48
2022/04/04 03:31:58;;;;;;;;;;;;;;;;;;2098627;28;20377;-43
2022/04/04 03:33:00;;;;;;;;;;;;;;;;;;2098889;28;19973;-48
2022/04/04 03:34:00;;;;;;;;;;;;;;;;;;2098541;28;19924;-48
2022/04/04 03:35:02;;;;;;;;;;;;;;;;;;2098605;28;19924;-48
2022/04/04 03:36:03;;;;;;;;;;;;;;;;;;2098605;28;20289;-48
2022/04/04 03:37:06;;;;;;;;;;;;;;;;;;2098422;28;19932;-47
2022/04/04 03:38:07;;;;;;;;;;;;;;;;;;2098722;28;19977;-48
2022/04/04 03:39:12;;;;;;;;;;;;;;;;;;2098515;28;19924;-49
2022/04/04 03:40:13;;;;;;;;;;;;;;;;;;2098756;28;19929;-48
2022/04/04 03:41:14;;;;;;;;;;;;;;;;;;2098518;28;19924;-47
2022/04/04 03:42:16;;;;;;;;;;;;;;;;;;2099146;28;20014;-48
2022/04/04 03:43:17;;;;;;;;;;;;;;;;;;2098480;28;20416;-49
2022/04/04 03:44:18;;;;;;;;;;;;;;;;;;2098429;28;19924;-48
2022/04/04 03:45:19;;;;;;;;;;;;;;;;;;2098706;28;20018;-48
2022/04/04 03:46:20;;;;;;;;;;;;;;;;;;2098369;28;20027;-48
2022/04/04 03:47:22;;;;;;;;;;;;;;;;;;2098754;28;19924;-48
2022/04/04 03:48:23;;;;;;;;;;;;;;;;;;2098731;28;19970;-43
2022/04/04 03:49:24;;;;;;;;;;;;;;;;;;2099041;28;20026;-43
2022/04/04 03:50:25;;;;;;;;;;;;;;;;;;2098327;28;20285;-43
2022/04/04 03:51:27;;;;;;;;;;;;;;;;;;2098401;28;20003;-43
2022/04/04 03:52:27;;;;;;;;;;;;;;;;;;2098531;28;20287;-43
2022/04/04 03:53:29;;;;;;;;;;;;;;;;;;2098353;28;19940;-43
2022/04/04 03:54:30;;;;;;;;;;;;;;;;;;2098357;28;19931;-43
2022/04/04 03:55:32;;;;;;;;;;;;;;;;;;2098459;28;20370;-43
2022/04/04 03:56:32;;;;;;;;;;;;;;;;;;2098297;28;20377;-43
2022/04/04 03:57:38;;;;;;;;;;;;;;;;;;2098487;28;20023;-43
2022/04/04 03:58:39;;;;;;;;;;;;;;;;;;2098385;28;20258;-43
2022/04/04 03:59:40;;;;;;;;;;;;;;;;;;2104250;28;19924;-43
2022/04/04 04:00:41;;;;;;;;;;;;;;;;;;2106906;28;19932;-43
2022/04/04 04:01:42;;;;;;;;;;;;;;;;;;2107099;28;19931;-43
2022/04/04 04:02:44;;;;;;;;;;;;;;;;;;2107125;28;19927;-43
2022/04/04 04:03:45;;;;;;;;;;;;;;;;;;2106803;28;19928;-43
2022/04/04 04:04:47;;;;;;;;;;;;;;;;;;2106849;28;20307;-43
2022/04/04 04:05:48;;;;;;;;;;;;;;;;;;2106744;28;20365;-43
2022/04/04 04:06:51;;;;;;;;;;;;;;;;;;2106680;28;19931;-43
2022/04/04 04:07:53;;;;;;;;;;;;;;;;;;2106728;28;20368;-43
2022/04/04 04:08:54;;;;;;;;;;;;;;;;;;2106604;28;19935;-43
2022/04/04 04:09:55;;;;;;;;;;;;;;;;;;2106627;28;20490;-43
2022/04/04 04:10:56;;;;;;;;;;;;;;;;;;2106604;28;20281;-43
2022/04/04 04:11:57;;;;;;;;;;;;;;;;;;2106578;28;19946;-43
2022/04/04 04:13:00;;;;;;;;;;;;;;;;;;2106691;28;19924;-43
2022/04/04 04:14:02;;;;;;;;;;;;;;;;;;2105696;28;19924;-43
2022/04/04 04:15:03;;;;;;;;;;;;;;;;;;2100197;28;19928;-48
2022/04/04 04:16:04;;;;;;;;;;;;;;;;;;2106513;28;19928;-49
2022/04/04 04:17:06;;;;;;;;;;;;;;;;;;2106541;28;19979;-48
2022/04/04 04:18:07;;;;;;;;;;;;;;;;;;2106909;28;19924;-43
2022/04/04 04:20:19;;;;;;;;;;;;;;;;;;2106784;28;19924;-48
2022/04/04 04:20:31;;;;;;;;;;;;;;;;;;2106802;28;19924;-43
2022/04/04 04:21:34;;;;;;;;;;;;;;;;;;2106928;28;19931;-43
2022/04/04 04:22:35;;;;;;;;;;;;;;;;;;2106807;28;20427;-43
2022/04/04 04:23:36;;;;;;;;;;;;;;;;;;2106527;28;20238;-43
2022/04/04 04:24:38;;;;;;;;;;;;;;;;;;2106813;28;19924;-43
2022/04/04 04:25:39;;;;;;;;;;;;;;;;;;2107003;28;19925;-43
2022/04/04 04:26:40;;;;;;;;;;;;;;;;;;2106451;28;20421;-43
2022/04/04 04:27:41;;;;;;;;;;;;;;;;;;2106751;28;20331;-43
2022/04/04 04:28:42;;;;;;;;;;;;;;;;;;2106936;28;19924;-43
2022/04/04 04:29:43;;;;;;;;;;;;;;;;;;2106493;28;20324;-43
2022/04/04 04:30:47;;;;;;;;;;;;;;;;;;2106553;28;19924;-42
2022/04/04 04:31:48;;;;;;;;;;;;;;;;;;2106694;28;20382;-48
2022/04/04 04:32:49;;;;;;;;;;;;;;;;;;2106769;28;19982;-43
2022/04/04 04:33:50;;;;;;;;;;;;;;;;;;2106705;28;19931;-44
2022/04/04 04:34:51;;;;;;;;;;;;;;;;;;2106679;28;20300;-43
2022/04/04 04:35:53;;;;;;;;;;;;;;;;;;2106459;28;19924;-44
2022/04/04 04:36:54;;;;;;;;;;;;;;;;;;2106426;28;19928;-48
2022/04/04 04:37:55;;;;;;;;;;;;;;;;;;2106445;28;20394;-49
2022/04/04 04:38:56;;;;;;;;;;;;;;;;;;2106501;28;20280;-49
2022/04/04 04:39:57;;;;;;;;;;;;;;;;;;2106501;28;19924;-48
2022/04/04 04:40:58;;;;;;;;;;;;;;;;;;2106440;28;19924;-48
2022/04/04 04:41:59;;;;;;;;;;;;;;;;;;2106748;28;19924;-44
2022/04/04 04:43:00;;;;;;;;;;;;;;;;;;2106725;28;20495;-48
2022/04/04 04:44:03;;;;;;;;;;;;;;;;;;2106619;28;19924;-48
2022/04/04 04:45:04;;;;;;;;;;;;;;;;;;2106417;28;19944;-49
2022/04/04 04:46:05;;;;;;;;;;;;;;;;;;2106419;28;19924;-49
2022/04/04 04:47:07;;;;;;;;;;;;;;;;;;2106600;28;19932;-44
2022/04/04 04:48:08;;;;;;;;;;;;;;;;;;2106431;28;19955;-44
2022/04/04 04:49:10;;;;;;;;;;;;;;;;;;2106552;28;20293;-49
2022/04/04 04:50:11;;;;;;;;;;;;;;;;;;2107575;28;19974;-45
2022/04/04 04:51:12;;;;;;;;;;;;;;;;;;2106656;28;19928;-52
2022/04/04 04:52:13;;;;;;;;;;;;;;;;;;2106427;28;20365;-52
2022/04/04 04:53:14;;;;;;;;;;;;;;;;;;2106524;28;19974;-50
2022/04/04 04:54:15;;;;;;;;;;;;;;;;;;2106453;28;19924;-51
2022/04/04 04:55:18;;;;;;;;;;;;;;;;;;2106186;28;19970;-44
2022/04/04 04:56:19;;;;;;;;;;;;;;;;;;2106325;28;20077;-44
2022/04/04 04:57:20;;;;;;;;;;;;;;;;;;2105911;28;19925;-53
2022/04/04 04:58:21;;;;;;;;;;;;;;;;;;2106549;28;19924;-50
2022/04/04 04:59:22;;;;;;;;;;;;;;;;;;2106536;28;19928;-45
2022/04/04 05:00:23;;;;;;;;;;;;;;;;;;2106676;28;19924;-51
2022/04/04 05:01:24;;;;;;;;;;;;;;;;;;2106295;28;20406;-52
2022/04/04 05:02:26;;;;;;;;;;;;;;;;;;2106515;28;20398;-45
2022/04/04 05:03:27;;;;;;;;;;;;;;;;;;2106322;28;20016;-45
2022/04/04 05:04:29;;;;;;;;;;;;;;;;;;2106287;28;19946;-46
2022/04/04 05:05:30;;;;;;;;;;;;;;;;;;2106574;28;20343;-50
2022/04/04 05:06:31;;;;;;;;;;;;;;;;;;2106376;28;19924;-49
2022/04/04 05:07:32;;;;;;;;;;;;;;;;;;2106506;28;19924;-50
2022/04/04 05:08:33;;;;;;;;;;;;;;;;;;2106325;28;19931;-51
2022/04/04 05:09:34;;;;;;;;;;;;;;;;;;2106729;28;19997;-44
2022/04/04 05:10:35;;;;;;;;;;;;;;;;;;2106465;28;19924;-45
2022/04/04 05:11:36;;;;;;;;;;;;;;;;;;2106204;28;19924;-45
2022/04/04 05:12:37;;;;;;;;;;;;;;;;;;2106481;28;19935;-45
2022/04/04 05:13:38;;;;;;;;;;;;;;;;;;2105910;28;19924;-51
2022/04/04 05:14:40;;;;;;;;;;;;;;;;;;2099958;28;19930;-50
2022/04/04 05:15:41;;;;;;;;;;;;;;;;;;2098184;28;19925;-52
2022/04/04 05:16:42;;;;;;;;;;;;;;;;;;2097873;28;20434;-50
2022/04/04 05:17:44;;;;;;;;;;;;;;;;;;2097854;28;19932;-50
2022/04/04 05:18:45;;;;;;;;;;;;;;;;;;2097782;28;19925;-51
2022/04/04 05:19:47;;;;;;;;;;;;;;;;;;2098060;28;20023;-51
2022/04/04 05:20:47;;;;;;;;;;;;;;;;;;2097793;28;20285;-56
2022/04/04 05:21:48;;;;;;;;;;;;;;;;;;2097900;28;19924;-46
2022/04/04 05:22:50;;;;;;;;;;;;;;;;;;2097827;28;19924;-46
2022/04/04 05:23:51;;;;;;;;;;;;;;;;;;2098083;28;19924;-51
2022/04/04 05:24:52;;;;;;;;;;;;;;;;;;2097819;28;20066;-54
2022/04/04 05:25:53;;;;;;;;;;;;;;;;;;2097840;28;19930;-51
2022/04/04 05:26:54;;;;;;;;;;;;;;;;;;2098450;28;20341;-51
2022/04/04 05:27:56;;;;;;;;;;;;;;;;;;2097963;28;20019;-52
2022/04/04 05:28:57;;;;;;;;;;;;;;;;;;2098438;28;19932;-52
2022/04/04 05:30:04;;;;;;;;;;;;;;;;;;2097955;28;19928;-46
2022/04/04 05:31:05;;;;;;;;;;;;;;;;;;2097929;28;20434;-52
2022/04/04 05:32:06;;;;;;;;;;;;;;;;;;2098138;28;20404;-46
2022/04/04 05:33:09;;;;;;;;;;;;;;;;;;2097827;28;19955;-45
2022/04/04 05:34:11;;;;;;;;;;;;;;;;;;2097781;28;20464;-51
2022/04/04 05:35:12;;;;;;;;;;;;;;;;;;2098012;28;19925;-45
2022/04/04 05:36:13;;;;;;;;;;;;;;;;;;2097659;28;19939;-45
2022/04/04 05:37:15;;;;;;;;;;;;;;;;;;2098153;28;20072;-52
2022/04/04 05:38:15;;;;;;;;;;;;;;;;;;2097750;28;19924;-51
2022/04/04 05:39:17;;;;;;;;;;;;;;;;;;2097928;28;19924;-55
2022/04/04 05:40:17;;;;;;;;;;;;;;;;;;2097854;28;20273;-46
2022/04/04 05:41:19;;;;;;;;;;;;;;;;;;2097734;28;19932;-46
2022/04/04 05:42:19;;;;;;;;;;;;;;;;;;2097972;28;19989;-45
2022/04/04 05:43:21;;;;;;;;;;;;;;;;;;2097956;28;20350;-51
2022/04/04 05:44:22;;;;;;;;;;;;;;;;;;2097877;28;19929;-51
2022/04/04 05:45:24;;;;;;;;;;;;;;;;;;2098311;28;19925;-53
2022/04/04 05:46:25;;;;;;;;;;;;;;;;;;2097963;28;19969;-52
2022/04/04 05:47:26;;;;;;;;;;;;;;;;;;2100345;28;20293;-52
2022/04/04 05:48:30;;;;;;;;;;;;;;;;;;2106736;28;19938;-52
2022/04/04 05:49:31;;;;;;;;;;;;;;;;;;2108701;28;19924;-52
2022/04/04 05:50:32;;;;;;;;;;;;;;;;;;2108607;28;19938;-44
2022/04/04 05:51:34;;;;;;;;;;;;;;;;;;2108716;28;19924;-46
2022/04/04 05:52:48;;;;;;;;;;;;;;;;;;2109112;28;19932;-44
2022/04/04 05:53:50;;;;;;;;;;;;;;;;;;2109354;28;19973;-53
2022/04/04 05:54:54;;;;;;;;;;;;;;;;;;2108449;28;20288;-53
2022/04/04 05:55:55;;;;;;;;;;;;;;;;;;2109017;28;20455;-53
2022/04/04 05:56:56;;;;;;;;;;;;;;;;;;2108968;28;20436;-52
2022/04/04 05:57:58;;;;;;;;;;;;;;;;;;2108778;28;19924;-54
2022/04/04 05:58:59;;;;;;;;;;;;;;;;;;2108874;28;19931;-54
2022/04/04 06:00:00;;;;;;;;;;;;;;;;;;2108708;28;19931;-54
2022/04/04 06:01:01;;;;;;;;;;;;;;;;;;2108942;28;19924;-54
2022/04/04 06:02:02;;;;;;;;;;;;;;;;;;2109360;28;19938;-52
2022/04/04 06:03:04;;;;;;;;;;;;;;;;;;2109563;28;19928;-48
2022/04/04 06:04:05;;;;;;;;;;;;;;;;;;2109013;28;19935;-43
2022/04/04 06:05:06;;;;;;;;;;;;;;;;;;2109267;28;19924;-52
2022/04/04 06:06:08;;;;;;;;;;;;;;;;;;2108697;28;19924;-54
2022/04/04 06:07:09;;;;;;;;;;;;;;;;;;2108742;28;19924;-56
2022/04/04 06:08:10;;;;;;;;;;;;;;;;;;2108934;28;20381;-43
2022/04/04 06:09:11;;;;;;;;;;;;;;;;;;2108387;28;19934;-44
2022/04/04 06:10:13;;;;;;;;;;;;;;;;;;2108668;28;20117;-43
2022/04/04 06:11:14;;;;;;;;;;;;;;;;;;2108383;28;19928;-55
2022/04/04 06:12:15;;;;;;;;;;;;;;;;;;2108453;28;19947;-53
2022/04/04 06:13:16;;;;;;;;;;;;;;;;;;2108737;28;19924;-54
2022/04/04 06:14:18;;;;;;;;;;;;;;;;;;2108532;28;19924;-55
2022/04/04 06:15:19;;;;;;;;;;;;;;;;;;2109000;28;19924;-55
2022/04/04 06:16:20;;;;;;;;;;;;;;;;;;2108730;28;19931;-53
2022/04/04 06:17:21;;;;;;;;;;;;;;;;;;2108891;28;19947;-53
2022/04/04 06:18:22;;;;;;;;;;;;;;;;;;2108929;28;19924;-43
2022/04/04 06:19:23;;;;;;;;;;;;;;;;;;2108251;28;19925;-44
2022/04/04 06:20:25;;;;;;;;;;;;;;;;;;2108975;28;19928;-52
2022/04/04 06:21:26;;;;;;;;;;;;;;;;;;2108589;28;19935;-55
2022/04/04 06:22:27;;;;;;;;;;;;;;;;;;2108731;28;19971;-55
2022/04/04 06:23:28;;;;;;;;;;;;;;;;;;2108741;28;19924;-55
2022/04/04 06:24:31;;;;;;;;;;;;;;;;;;2108843;28;19924;-53
2022/04/04 06:25:32;;;;;;;;;;;;;;;;;;2108823;28;20293;-44
2022/04/04 06:26:33;;;;;;;;;;;;;;;;;;2108963;28;19924;-52
2022/04/04 06:27:34;;;;;;;;;;;;;;;;;;2108739;28;19928;-44
2022/04/04 06:28:35;;;;;;;;;;;;;;;;;;2109025;28;19924;-44
2022/04/04 06:29:36;;;;;;;;;;;;;;;;;;2108829;28;19924;-42
2022/04/04 06:30:37;;;;;;;;;;;;;;;;;;2108521;28;20258;-44
2022/04/04 06:31:38;;;;;;;;;;;;;;;;;;2108500;28;19924;-45
2022/04/04 06:32:39;;;;;;;;;;;;;;;;;;2108706;28;20250;-44
2022/04/04 06:33:41;;;;;;;;;;;;;;;;;;2108609;28;19946;-45
2022/04/04 06:34:41;;;;;;;;;;;;;;;;;;2108695;28;19932;-45
2022/04/04 06:35:43;;;;;;;;;;;;;;;;;;2108652;28;19967;-45
2022/04/04 06:36:44;;;;;;;;;;;;;;;;;;2108653;28;19928;-45
2022/04/04 06:37:45;;;;;;;;;;;;;;;;;;2108879;28;19935;-45
2022/04/04 06:38:47;;;;;;;;;;;;;;;;;;2108837;28;20400;-49
2022/04/04 06:39:48;;;;;;;;;;;;;;;;;;2108831;28;19927;-46
2022/04/04 06:40:51;;;;;;;;;;;;;;;;;;2108979;28;19924;-44
2022/04/04 06:41:52;;;;;;;;;;;;;;;;;;2108343;28;19925;-44
2022/04/04 06:42:55;;;;;;;;;;;;;;;;;;2108540;28;19925;-44
2022/04/04 06:43:56;;;;;;;;;;;;;;;;;;2108529;28;19924;-44
2022/04/04 06:44:58;;;;;;;;;;;;;;;;;;2108909;28;19924;-44
2022/04/04 06:46:00;;;;;;;;;;;;;;;;;;2108648;28;19977;-44
2022/04/04 06:47:01;;;;;;;;;;;;;;;;;;2108510;28;20369;-44
2022/04/04 06:48:02;;;;;;;;;;;;;;;;;;2108577;28;19932;-47
2022/04/04 06:49:03;;;;;;;;;;;;;;;;;;2108657;28;20397;-49
2022/04/04 06:50:04;;;;;;;;;;;;;;;;;;2108651;28;20363;-49
2022/04/04 06:51:06;;;;;;;;;;;;;;;;;;2108979;28;19924;-52
2022/04/04 06:52:07;;;;;;;;;;;;;;;;;;2108595;28;20313;-51
2022/04/04 06:53:08;;;;;;;;;;;;;;;;;;2108656;28;20434;-50
2022/04/04 06:54:18;;;;;;;;;;;;;;;;;;2108705;28;19924;-49
2022/04/04 06:55:19;;;;;;;;;;;;;;;;;;2108936;28;19924;-44
2022/04/04 06:56:20;;;;;;;;;;;;;;;;;;2108362;28;19931;-45
2022/04/04 06:57:21;;;;;;;;;;;;;;;;;;2108752;28;19930;-48
2022/04/04 06:58:22;;;;;;;;;;;;;;;;;;2108726;28;20058;-48
2022/04/04 06:59:23;;;;;;;;;;;;;;;;;;2108416;28;20314;-48
2022/04/04 07:00:24;;;;;;;;;;;;;;;;;;2107817;28;19939;-48
2022/04/04 07:01:26;;;;;;;;;;;;;;;;;;2107108;28;19963;-50